Time;durP1;ratioP1;P1;durP2;ratioP2;P2;SDS_P1;SDS_P2;PMS_P1;PMS_P2;Temp;Humidity;BMP_temperature;BMP_pressure;BME280_temperature;BME280_humidity;BME280_pressure;Samples;Min_cycle;Max_cycle;Signal;HPM_P1;HPM_P2
2021/04/19 00:00:39;;;;;;;74.07;33.40;;;;;;;2.21;91.54;99619.97;3464634;28;20049;-46
2021/04/19 00:02:22;;;;;;;66.20;30.73;;;;;;;2.20;91.83;99620.78;3465149;28;20135;-46
2021/04/19 00:04:04;;;;;;;68.50;32.03;;;;;;;2.19;91.79;99611.34;3468406;28;20498;-55
2021/04/19 00:05:46;;;;;;;66.57;30.73;;;;;;;2.19;91.66;99615.59;3464313;28;20056;-56
2021/04/19 00:07:28;;;;;;;76.85;31.38;;;;;;;2.18;91.53;99616.38;3469206;28;20053;-46
2021/04/19 00:09:10;;;;;;;70.18;31.83;;;;;;;2.16;91.71;99607.75;3465500;28;20053;-54
2021/04/19 00:10:51;;;;;;;72.75;30.02;;;;;;;2.16;91.68;99611.19;3468601;28;20481;-55
2021/04/19 00:12:34;;;;;;;74.13;32.08;;;;;;;2.16;91.85;99615.44;3458823;28;20125;-53
2021/04/19 00:14:15;;;;;;;71.90;31.33;;;;;;;2.15;91.81;99614.56;3462434;28;20053;-46
2021/04/19 00:15:56;;;;;;;72.68;32.00;;;;;;;2.13;91.78;99606.81;3467991;28;20050;-54
2021/04/19 00:17:38;;;;;;;86.35;32.78;;;;;;;2.13;91.89;99616.19;3465124;28;20111;-55
2021/04/19 00:19:21;;;;;;;73.03;29.77;;;;;;;2.12;91.67;99610.16;3468554;28;20426;-55
2021/04/19 00:21:04;;;;;;;74.38;30.88;;;;;;;2.11;92.08;99607.53;3464237;28;20045;-47
2021/04/19 00:22:45;;;;;;;71.68;32.33;;;;;;;2.11;92.01;99607.53;3468326;28;20120;-55
2021/04/19 00:24:27;;;;;;;66.13;30.58;;;;;;;2.10;91.91;99599.00;3466159;28;20080;-47
2021/04/19 00:26:09;;;;;;;78.35;31.83;;;;;;;2.10;91.85;99600.69;3465255;28;20061;-56
2021/04/19 00:27:50;;;;;;;67.97;32.67;;;;;;;2.09;91.96;99594.66;3467571;28;20060;-55
2021/04/19 00:29:32;;;;;;;76.25;31.88;;;;;;;2.08;91.87;99598.06;3463414;28;20049;-47
2021/04/19 00:31:13;;;;;;;71.78;32.60;;;;;;;2.06;91.78;99604.78;3468444;28;20053;-46
2021/04/19 00:33:00;;;;;;;68.65;32.08;;;;;;;2.04;91.65;99595.25;3450559;28;20140;-47
2021/04/19 00:34:41;;;;;;;75.75;32.95;;;;;;;2.02;91.57;99600.31;3466360;28;20049;-46
2021/04/19 00:36:23;;;;;;;77.55;33.65;;;;;;;1.99;91.36;99600.19;3466029;28;20045;-46
2021/04/19 00:38:04;;;;;;;77.28;33.17;;;;;;;1.97;91.58;99589.00;3466133;28;20049;-47
2021/04/19 00:39:46;;;;;;;81.38;33.45;;;;;;;1.97;92.11;99591.56;3468291;28;20049;-55
2021/04/19 00:41:28;;;;;;;78.90;32.88;;;;;;;1.98;92.00;99589.88;3465316;28;20380;-46
2021/04/19 00:43:10;;;;;;;67.88;31.08;;;;;;;1.99;92.32;99594.19;3468618;28;20050;-47
2021/04/19 00:44:52;;;;;;;74.78;33.88;;;;;;;1.98;92.57;99587.31;3462078;28;20452;-46
2021/04/19 00:46:33;;;;;;;78.28;32.60;;;;;;;1.96;92.26;99592.38;3455569;28;20574;-54
2021/04/19 00:48:15;;;;;;;76.68;35.33;;;;;;;1.96;92.53;99597.47;3466120;28;20140;-56
2021/04/19 00:49:56;;;;;;;79.55;34.92;;;;;;;1.96;92.46;99594.06;3466540;28;20176;-54
2021/04/19 00:51:40;;;;;;;80.03;35.95;;;;;;;1.94;92.50;99593.97;3466978;28;20519;-46
2021/04/19 00:53:23;;;;;;;75.47;35.08;;;;;;;1.94;92.36;99587.19;3464453;28;20049;-54
2021/04/19 00:55:10;;;;;;;76.75;33.78;;;;;;;1.92;92.34;99585.38;3468364;28;20057;-46
2021/04/19 00:56:52;;;;;;;77.85;35.72;;;;;;;1.89;92.36;99591.19;3465163;28;20510;-46
2021/04/19 00:58:34;;;;;;;78.65;33.65;;;;;;;1.87;92.38;99584.28;3467417;28;20331;-47
2021/04/19 01:00:21;;;;;;;76.30;33.33;;;;;;;1.86;92.02;99588.47;3466858;28;20095;-46
2021/04/19 01:02:03;;;;;;;72.43;33.72;;;;;;;1.84;91.87;99590.09;3464722;28;20076;-55
2021/04/19 01:03:45;;;;;;;78.85;33.45;;;;;;;1.83;92.25;99587.47;3467964;28;20485;-55
2021/04/19 01:05:31;;;;;;;78.68;35.45;;;;;;;1.82;92.39;99584.03;3465582;28;20107;-55
2021/04/19 01:07:13;;;;;;;82.90;37.80;;;;;;;1.85;92.66;99585.88;3466691;28;20084;-55
2021/04/19 01:08:54;;;;;;;86.78;39.78;;;;;;;1.86;92.84;99579.94;3466220;28;20049;-55
2021/04/19 01:10:37;;;;;;;104.97;45.95;;;;;;;1.88;93.08;99581.78;3466796;28;20054;-46
2021/04/19 01:12:18;;;;;;;97.15;42.75;;;;;;;1.92;93.24;99580.25;3467478;28;20053;-55
2021/04/19 01:14:19;;;;;;;88.28;39.20;;;;;;;1.92;93.49;99581.13;3464070;28;20049;-53
2021/04/19 01:16:00;;;;;;;86.80;40.97;;;;;;;1.93;93.49;99585.41;3470217;28;20054;-46
2021/04/19 01:17:42;;;;;;;105.68;44.65;;;;;;;1.96;93.58;99586.38;3467693;28;20538;-53
2021/04/19 01:19:26;;;;;;;95.45;43.67;;;;;;;1.96;93.57;99579.56;3468774;28;20104;-56
2021/04/19 01:21:08;;;;;;;98.82;46.40;;;;;;;1.98;93.67;99579.66;3469553;28;20450;-54
2021/04/19 01:22:50;;;;;;;102.57;48.83;;;;;;;1.97;93.81;99580.44;3466709;28;20046;-54
2021/04/19 01:24:31;;;;;;;85.63;43.65;;;;;;;1.97;93.54;99588.13;3470768;28;20046;-46
2021/04/19 01:26:13;;;;;;;86.43;41.75;;;;;;;1.95;93.26;99585.47;3467219;28;20046;-56
2021/04/19 01:28:10;;;;;;;88.03;37.33;;;;;;;1.91;92.98;99589.59;3468075;28;20164;-55
2021/04/19 01:29:52;;;;;;;83.72;38.67;;;;;;;1.89;93.15;99598.00;3458524;28;20050;-55
2021/04/19 01:31:33;;;;;;;73.40;33.55;;;;;;;1.85;93.00;99581.63;3460391;28;20507;-46
2021/04/19 01:33:15;;;;;;;71.68;34.08;;;;;;;1.85;93.16;99584.19;3470924;28;20408;-55
2021/04/19 01:34:57;;;;;;;84.10;36.90;;;;;;;1.84;93.48;99584.13;3467088;28;20045;-55
2021/04/19 01:36:40;;;;;;;71.88;34.63;;;;;;;1.82;93.05;99580.63;3469709;28;20065;-55
2021/04/19 01:38:24;;;;;;;67.72;34.33;;;;;;;1.81;93.21;99582.28;3466821;28;20046;-47
2021/04/19 01:40:06;;;;;;;;;;;;;;;1.80;93.43;99574.56;3468060;28;20088;-47
2021/04/19 01:41:47;;;;;;;65.55;31.05;;;;;;;1.79;93.56;99572.78;3469460;28;19932;-46
2021/04/19 01:43:29;;;;;;;67.97;31.10;;;;;;;1.79;93.57;99573.66;3466469;28;20069;-47
2021/04/19 01:45:12;;;;;;;61.72;30.25;;;;;;;1.78;93.23;99579.59;3470593;28;20502;-46
2021/04/19 01:46:54;;;;;;;63.38;31.90;;;;;;;1.74;92.90;99573.47;3467256;28;20076;-46
2021/04/19 01:48:35;;;;;;;64.15;29.65;;;;;;;1.72;93.24;99572.53;3470084;28;20053;-55
2021/04/19 01:50:20;;;;;;;53.15;27.77;;;;;;;1.70;93.12;99570.69;3467270;28;20053;-55
2021/04/19 01:52:03;;;;;;;69.13;32.05;;;;;;;1.70;92.99;99578.34;3468478;28;20053;-47
2021/04/19 01:53:44;;;;;;;63.13;30.13;;;;;;;1.68;93.15;99570.59;3457282;28;20435;-47
2021/04/19 01:55:29;;;;;;;57.58;29.65;;;;;;;1.67;92.92;99573.09;3461467;28;20049;-47
2021/04/19 01:57:11;;;;;;;59.08;30.92;;;;;;;1.67;93.05;99575.63;3470533;28;20079;-46
2021/04/19 01:58:53;;;;;;;63.50;30.52;;;;;;;1.66;92.99;99574.78;3467137;28;20522;-46
2021/04/19 02:00:37;;;;;;;63.22;31.50;;;;;;;1.66;93.03;99574.78;3469199;28;20576;-56
2021/04/19 02:02:20;;;;;;;63.28;31.17;;;;;;;1.64;93.04;99572.97;3468080;28;20093;-55
2021/04/19 02:04:10;;;;;;;64.10;30.83;;;;;;;1.61;92.91;99565.13;3466692;28;20059;-46
2021/04/19 02:05:59;;;;;;;60.33;29.40;;;;;;;1.55;92.45;99569.16;3456450;28;20093;-46
2021/04/19 02:07:50;;;;;;;56.78;30.67;;;;;;;1.52;92.72;99569.00;3464856;28;20054;-55
2021/04/19 02:09:37;;;;;;;60.22;29.58;;;;;;;1.48;92.66;99564.56;3468930;28;20049;-46
2021/04/19 02:11:28;;;;;;;57.85;29.42;;;;;;;1.51;93.08;99571.47;3468737;28;20049;-46
2021/04/19 02:13:14;;;;;;;64.72;29.75;;;;;;;1.51;92.83;99571.47;3465490;28;20080;-46
2021/04/19 02:15:02;;;;;;;64.75;30.98;;;;;;;1.51;93.23;99571.47;3470050;28;20053;-46
2021/04/19 02:16:48;;;;;;;59.13;30.40;;;;;;;1.50;93.19;99572.28;3466690;28;20099;-46
2021/04/19 02:18:42;;;;;;;65.00;30.00;;;;;;;1.49;93.19;99567.97;3468129;28;20064;-47
2021/04/19 02:20:35;;;;;;;55.78;29.65;;;;;;;1.48;92.95;99574.78;3467866;28;20333;-56
2021/04/19 02:22:19;;;;;;;58.13;29.15;;;;;;;1.47;93.19;99567.91;3466376;28;20057;-56
2021/04/19 02:24:05;;;;;;;62.00;29.90;;;;;;;1.47;93.15;99565.34;3468879;28;20053;-53
2021/04/19 02:25:49;;;;;;;62.58;29.08;;;;;;;1.47;93.21;99567.03;3465565;28;20096;-55
2021/04/19 02:27:33;;;;;;;64.00;31.10;;;;;;;1.44;93.54;99572.88;3467669;28;20053;-55
2021/04/19 02:29:19;;;;;;;57.72;30.10;;;;;;;1.45;93.49;99571.19;3468347;28;20533;-56
2021/04/19 02:31:03;;;;;;;58.47;29.67;;;;;;;1.44;93.23;99571.97;3466266;28;20084;-55
2021/04/19 02:32:48;;;;;;;63.90;30.38;;;;;;;1.42;93.09;99573.59;3469685;28;20395;-55
2021/04/19 02:34:31;;;;;;;60.35;30.50;;;;;;;1.38;93.26;99570.88;3466699;28;20111;-46
2021/04/19 02:36:13;;;;;;;62.85;32.08;;;;;;;1.36;92.95;99563.97;3468514;28;20050;-46
2021/04/19 02:37:57;;;;;;;52.55;28.20;;;;;;;1.33;93.02;99574.03;3467520;28;20426;-46
2021/04/19 02:39:41;;;;;;;53.00;28.92;;;;;;;1.30;92.98;99572.22;3466252;28;20065;-46
2021/04/19 02:41:25;;;;;;;55.70;29.08;;;;;;;1.28;93.12;99570.38;3469422;28;20060;-46
2021/04/19 02:43:07;;;;;;;70.38;33.08;;;;;;;1.29;93.22;99569.56;3466225;28;20069;-46
2021/04/19 02:44:50;;;;;;;62.78;33.50;;;;;;;1.29;93.53;99565.34;3469757;28;20057;-46
2021/04/19 02:46:33;;;;;;;57.43;31.27;;;;;;;1.32;93.73;99569.72;3466189;28;20084;-46
2021/04/19 02:48:15;;;;;;;61.45;31.08;;;;;;;1.32;93.89;99562.94;3467648;28;20656;-46
2021/04/19 02:49:57;;;;;;;58.67;31.38;;;;;;;1.33;93.79;99566.34;3468205;28;20049;-46
2021/04/19 02:51:40;;;;;;;62.78;31.48;;;;;;;1.33;93.98;99566.34;3466116;28;20052;-55
2021/04/19 02:53:22;;;;;;;60.53;30.70;;;;;;;1.32;93.73;99570.59;3469693;28;20107;-56
2021/04/19 02:55:06;;;;;;;56.67;29.25;;;;;;;1.32;93.68;99565.50;3465965;28;20282;-56
2021/04/19 02:56:50;;;;;;;57.22;29.52;;;;;;;1.31;93.66;99563.72;3469026;28;20081;-55
2021/04/19 02:58:38;;;;;;;59.80;32.15;;;;;;;1.31;93.61;99565.41;3466746;28;20053;-55
2021/04/19 03:00:23;;;;;;;63.95;31.35;;;;;;;1.28;93.66;99566.16;3466188;28;20399;-56
2021/04/19 03:02:08;;;;;;;64.50;33.13;;;;;;;1.28;93.79;99567.81;3468210;28;20493;-55
2021/04/19 03:03:53;;;;;;;62.45;32.72;;;;;;;1.28;93.64;99563.59;3465825;28;20422;-56
2021/04/19 03:05:37;;;;;;;62.25;32.47;;;;;;;1.29;93.76;99572.13;3469256;28;20065;-56
2021/04/19 03:07:21;;;;;;;65.22;32.40;;;;;;;1.27;93.68;99561.84;3465183;28;20050;-54
2021/04/19 03:09:04;;;;;;;62.92;31.70;;;;;;;1.27;93.47;99566.94;3466344;28;20049;-55
2021/04/19 03:10:53;;;;;;;57.53;31.30;;;;;;;1.26;93.41;99567.72;3469353;28;20057;-55
2021/04/19 03:12:36;;;;;;;66.13;34.65;;;;;;;1.27;93.84;99569.50;3465775;28;20080;-55
2021/04/19 03:14:22;;;;;;;58.45;32.13;;;;;;;1.29;93.80;99575.56;3467809;28;20530;-55
2021/04/19 03:16:05;;;;;;;65.68;33.92;;;;;;;1.31;93.94;99570.53;3465933;28;20045;-55
2021/04/19 03:17:47;;;;;;;65.25;32.78;;;;;;;1.32;93.89;99572.28;3467736;28;20092;-56
2021/04/19 03:19:32;;;;;;;65.63;34.63;;;;;;;1.34;94.40;99575.78;3467397;28;20107;-45
2021/04/19 03:21:16;;;;;;;74.18;37.15;;;;;;;1.36;94.16;99576.75;3464374;28;20056;-46
2021/04/19 03:22:59;;;;;;;69.00;34.42;;;;;;;1.37;94.12;99579.38;3469810;28;20056;-56
2021/04/19 03:24:42;;;;;;;65.95;33.35;;;;;;;1.40;93.77;99585.44;3465784;28;20099;-55
2021/04/19 03:26:28;;;;;;;72.00;36.38;;;;;;;1.40;94.21;99578.63;3469122;28;20054;-55
2021/04/19 03:28:12;;;;;;;61.10;32.50;;;;;;;1.44;94.35;99584.75;3466191;28;20104;-55
2021/04/19 03:29:53;;;;;;;70.75;35.72;;;;;;;1.47;94.38;99584.91;3466423;28;20565;-55
2021/04/19 03:31:39;;;;;;;60.83;33.08;;;;;;;1.51;94.17;99589.38;3468572;28;20057;-55
2021/04/19 03:33:21;;;;;;;64.90;32.72;;;;;;;1.54;94.24;99582.72;3465664;28;20053;-56
2021/04/19 03:35:06;;;;;;;64.78;34.63;;;;;;;1.57;94.20;99584.56;3468852;28;20080;-55
2021/04/19 03:36:50;;;;;;;58.78;33.97;;;;;;;1.62;94.28;99582.22;3460314;28;20057;-56
2021/04/19 03:38:33;;;;;;;64.25;33.70;;;;;;;1.65;94.52;99580.69;3456049;28;20454;-56
2021/04/19 03:40:22;;;;;;;69.70;33.53;;;;;;;1.71;94.22;99582.66;3466551;28;20132;-55
2021/04/19 03:42:05;;;;;;;64.82;35.20;;;;;;;1.75;94.51;99576.88;3465881;28;20046;-56
2021/04/19 03:43:54;;;;;;;70.55;35.03;;;;;;;1.81;94.49;99576.28;3455193;28;20104;-56
2021/04/19 03:45:38;;;;;;;69.90;37.65;;;;;;;1.87;94.77;99574.91;3463580;28;20045;-56
2021/04/19 03:47:22;;;;;;;76.78;39.00;;;;;;;1.94;94.68;99579.50;3468657;28;20057;-56
2021/04/19 03:49:08;;;;;;;81.03;41.17;;;;;;;2.00;94.75;99568.66;3466633;28;20072;-46
2021/04/19 03:50:55;;;;;;;80.18;41.97;;;;;;;2.07;94.49;99570.69;3465728;28;20052;-46
2021/04/19 03:52:40;;;;;;;85.60;44.95;;;;;;;2.14;94.81;99567.59;3468527;28;20054;-45
2021/04/19 03:54:26;;;;;;;83.57;43.75;;;;;;;2.24;94.96;99568.06;3464321;28;20049;-46
2021/04/19 03:56:10;;;;;;;83.53;44.50;;;;;;;2.29;94.63;99569.13;3468205;28;20068;-45
2021/04/19 03:57:54;;;;;;;90.25;45.88;;;;;;;2.36;94.79;99570.25;3465813;28;20057;-47
2021/04/19 03:59:37;;;;;;;;;;;;;;;2.43;94.57;99575.75;3466037;28;20050;-46
2021/04/19 04:01:19;;;;;;;87.25;42.13;;;;;;;2.48;94.80;99569.16;3467830;28;19963;-46
2021/04/19 04:03:04;;;;;;;87.28;42.22;;;;;;;2.60;94.67;99567.91;3465544;28;20091;-46
2021/04/19 04:04:47;;;;;;;81.50;42.10;;;;;;;2.68;94.80;99571.69;3468564;28;20407;-46
2021/04/19 04:06:29;;;;;;;72.70;38.53;;;;;;;2.76;95.07;99566.91;3465180;28;20528;-50
2021/04/19 04:08:11;;;;;;;69.00;37.45;;;;;;;2.85;95.11;99568.19;3467835;28;20045;-60
2021/04/19 04:09:54;;;;;;;69.30;37.13;;;;;;;2.96;95.26;99573.75;3466924;28;20111;-60
2021/04/19 04:11:36;;;;;;;58.88;34.53;;;;;;;3.06;95.20;99568.19;3465780;28;20049;-60
2021/04/19 04:13:19;;;;;;;69.60;34.72;;;;;;;3.18;95.36;99570.38;3466487;28;20099;-61
2021/04/19 04:15:00;;;;;;;75.45;37.08;;;;;;;3.33;95.31;99566.69;3465460;28;20391;-50
2021/04/19 04:16:42;;;;;;;72.03;35.92;;;;;;;3.47;95.49;99574.16;3468461;28;20045;-51
2021/04/19 04:18:24;;;;;;;68.03;34.05;;;;;;;3.63;95.81;99574.78;3465447;28;20049;-50
2021/04/19 04:20:07;;;;;;;69.97;33.97;;;;;;;3.75;95.54;99564.97;3467022;28;20060;-61
2021/04/19 04:21:49;;;;;;;69.82;33.67;;;;;;;3.87;95.57;99571.41;3466453;28;20057;-54
2021/04/19 04:23:31;;;;;;;71.45;34.40;;;;;;;3.99;95.26;99577.03;3465274;28;20042;-49
2021/04/19 04:25:14;;;;;;;66.50;33.72;;;;;;;4.11;95.16;99566.34;3468417;28;20103;-50
2021/04/19 04:26:56;;;;;;;70.47;35.88;;;;;;;4.22;95.24;99570.19;3465288;28;20096;-49
2021/04/19 04:28:38;;;;;;;61.03;31.63;;;;;;;4.35;94.88;99572.41;3468768;28;20084;-49
2021/04/19 04:30:21;;;;;;;66.85;31.83;;;;;;;4.48;95.02;99571.16;3465326;28;20088;-49
2021/04/19 04:32:03;;;;;;;55.72;27.73;;;;;;;4.59;94.65;99574.97;3466868;28;20046;-61
2021/04/19 04:33:44;;;;;;;53.92;27.83;;;;;;;4.71;94.33;99573.69;3467046;28;20091;-49
2021/04/19 04:35:26;;;;;;;62.15;29.50;;;;;;;4.82;93.92;99577.47;3465334;28;20042;-49
2021/04/19 04:37:08;;;;;;;50.53;26.05;;;;;;;4.90;93.36;99577.75;3468288;28;20053;-49
2021/04/19 04:38:51;;;;;;;58.60;29.40;;;;;;;5.00;93.28;99579.81;3463591;28;20414;-50
2021/04/19 04:40:33;;;;;;;57.88;29.92;;;;;;;5.08;93.39;99583.53;3468603;28;20450;-60
2021/04/19 04:42:17;;;;;;;56.45;30.10;;;;;;;5.17;92.93;99586.41;3464006;28;20499;-61
2021/04/19 04:44:04;;;;;;;61.30;29.38;;;;;;;5.27;93.04;99585.03;3466474;28;20053;-60
2021/04/19 04:45:46;;;;;;;56.28;28.13;;;;;;;5.35;93.19;99585.28;3468310;28;20058;-60
2021/04/19 04:47:34;;;;;;;54.22;25.92;;;;;;;5.44;93.08;99589.84;3466165;28;20445;-60
2021/04/19 04:49:23;;;;;;;53.13;26.73;;;;;;;5.49;92.74;99581.44;3470958;28;20100;-60
2021/04/19 04:51:10;;;;;;;52.35;25.88;;;;;;;5.54;92.35;99589.34;3467360;28;20491;-60
2021/04/19 04:52:57;;;;;;;55.70;26.92;;;;;;;5.60;92.33;99589.53;3468854;28;20045;-60
2021/04/19 04:54:43;;;;;;;53.20;27.48;;;;;;;5.66;92.28;99589.72;3469434;28;20057;-51
2021/04/19 04:56:31;;;;;;;51.08;26.30;;;;;;;5.72;92.37;99587.34;3467263;28;20077;-48
2021/04/19 04:58:14;;;;;;;53.92;26.25;;;;;;;5.79;91.89;99580.69;3470658;28;20061;-48
2021/04/19 04:59:58;;;;;;;49.70;24.37;;;;;;;5.86;91.57;99582.63;3467309;28;20057;-49
2021/04/19 05:01:43;;;;;;;47.75;24.02;;;;;;;5.94;91.40;99581.16;3468687;28;20290;-48
2021/04/19 05:03:27;;;;;;;50.53;22.98;;;;;;;6.01;91.25;99574.50;3460497;28;20058;-48
2021/04/19 05:05:10;;;;;;;44.90;22.58;;;;;;;6.08;90.39;99570.41;3459269;28;20061;-49
2021/04/19 05:06:52;;;;;;;45.47;21.13;;;;;;;6.17;90.26;99572.38;3470711;28;20054;-48
2021/04/19 05:08:36;;;;;;;37.70;19.45;;;;;;;6.24;89.54;99575.19;3467226;28;20283;-48
2021/04/19 05:10:19;;;;;;;33.88;18.80;;;;;;;6.30;89.17;99569.34;3470207;28;20060;-48
2021/04/19 05:12:04;;;;;;;33.05;16.92;;;;;;;6.36;88.45;99571.22;3467476;28;20083;-48
2021/04/19 05:13:45;;;;;;;31.13;17.30;;;;;;;6.39;87.44;99561.88;3465945;28;20046;-48
2021/04/19 05:15:27;;;;;;;31.55;16.80;;;;;;;6.46;87.57;99568.94;3469339;28;20049;-51
2021/04/19 05:17:08;;;;;;;28.60;16.25;;;;;;;6.53;86.88;99569.13;3467287;28;20290;-48
2021/04/19 05:18:50;;;;;;;26.30;15.80;;;;;;;6.59;86.61;99565.00;3470449;28;20045;-48
2021/04/19 05:20:33;;;;;;;29.80;15.32;;;;;;;6.64;86.20;99571.16;3467618;28;20554;-49
2021/04/19 05:22:14;;;;;;;28.85;15.90;;;;;;;6.72;86.20;99576.53;3470251;28;20466;-60
2021/04/19 05:23:57;;;;;;;27.73;16.10;;;;;;;6.81;86.39;99579.38;3460483;28;20046;-47
2021/04/19 05:25:39;;;;;;;31.48;17.58;;;;;;;6.90;85.83;99573.59;3458503;28;20471;-60
2021/04/19 05:27:20;;;;;;;25.90;15.50;;;;;;;7.00;85.14;99580.78;3469267;28;20049;-60
2021/04/19 05:29:02;;;;;;;25.92;15.32;;;;;;;7.09;85.04;99572.41;3467168;28;20042;-60
2021/04/19 05:30:44;;;;;;;25.02;15.25;;;;;;;7.16;84.17;99569.16;3470765;28;20069;-60
2021/04/19 05:32:28;;;;;;;27.10;15.93;;;;;;;7.24;83.67;99570.19;3466953;28;20077;-60
2021/04/19 05:34:09;;;;;;;24.27;14.43;;;;;;;7.34;84.16;99570.47;3469638;28;20619;-60
2021/04/19 05:35:51;;;;;;;23.92;15.23;;;;;;;7.42;83.58;99568.91;3467833;28;20462;-48
2021/04/19 05:37:33;;;;;;;23.40;14.18;;;;;;;7.51;83.19;99566.59;3468567;28;20058;-60
2021/04/19 05:39:16;;;;;;;21.98;14.18;;;;;;;7.58;82.92;99568.47;3468980;28;20049;-59
2021/04/19 05:40:59;;;;;;;29.00;16.10;;;;;;;7.65;81.90;99574.63;3466760;28;20049;-59
2021/04/19 05:42:40;;;;;;;24.27;14.45;;;;;;;7.70;81.16;99565.28;3470832;28;20061;-48
2021/04/19 05:44:22;;;;;;;23.73;13.88;;;;;;;7.78;80.45;99562.91;3466195;28;20130;-47
2021/04/19 05:46:06;;;;;;;23.50;12.73;;;;;;;7.84;80.35;99566.47;3468218;28;20568;-48
2021/04/19 05:47:49;;;;;;;24.75;13.63;;;;;;;7.90;79.71;99565.78;3468604;28;20063;-48
2021/04/19 05:49:32;;;;;;;22.13;13.13;;;;;;;7.96;79.75;99558.13;3467215;28;20052;-48
2021/04/19 05:51:23;;;;;;;21.75;13.30;;;;;;;8.03;79.55;99562.59;3469365;28;20049;-59
2021/04/19 05:53:05;;;;;;;24.70;13.40;;;;;;;8.13;79.47;99566.28;3466710;28;20077;-60
2021/04/19 05:54:46;;;;;;;25.33;12.65;;;;;;;8.21;79.15;99569.88;3469880;28;20060;-48
2021/04/19 05:56:41;;;;;;;24.83;14.20;;;;;;;8.31;79.12;99572.69;3467109;28;20092;-48
2021/04/19 05:58:28;;;;;;;29.58;13.40;;;;;;;8.38;77.97;99564.22;3467157;28;20053;-48
2021/04/19 06:00:18;;;;;;;30.98;12.77;;;;;;;8.46;78.04;99559.19;3468846;28;20537;-49
2021/04/19 06:02:01;;;;;;;21.15;12.70;;;;;;;8.54;78.13;99561.09;3466739;28;20053;-49
2021/04/19 06:03:51;;;;;;;28.65;14.32;;;;;;;8.57;77.56;99558.56;3469893;28;20053;-51
2021/04/19 06:05:36;;;;;;;25.33;15.27;;;;;;;8.63;77.41;99562.13;3467604;28;20050;-49
2021/04/19 06:07:25;;;;;;;24.88;14.48;;;;;;;8.68;76.88;99557.91;3466782;28;20499;-52
2021/04/19 06:09:12;;;;;;;21.88;14.00;;;;;;;8.74;76.49;99550.25;3469594;28;20111;-49
2021/04/19 06:11:01;;;;;;;20.80;13.25;;;;;;;8.84;76.34;99554.78;3466661;28;20045;-61
2021/04/19 06:12:47;;;;;;;21.65;13.45;;;;;;;8.93;76.15;99554.06;3469631;28;20513;-60
2021/04/19 06:14:32;;;;;;;21.02;12.93;;;;;;;9.00;75.32;99552.47;3467778;28;20072;-49
2021/04/19 06:16:14;;;;;;;19.75;13.63;;;;;;;9.04;74.54;99547.34;3467005;28;20050;-60
2021/04/19 06:17:59;;;;;;;20.50;12.93;;;;;;;9.08;74.04;99550.88;3469898;28;20064;-60
2021/04/19 06:19:44;;;;;;;19.30;11.93;;;;;;;9.16;73.55;99549.31;3466497;28;20046;-60
2021/04/19 06:21:25;;;;;;;15.38;8.40;;;;;;;9.24;73.93;99552.00;3470071;28;20123;-60
2021/04/19 06:23:08;;;;;;;15.45;7.88;;;;;;;9.30;72.72;99553.00;3466673;28;20048;-61
2021/04/19 06:24:51;;;;;;;13.15;7.07;;;;;;;9.35;71.96;99538.41;3467995;28;20049;-60
2021/04/19 06:26:34;;;;;;;15.57;6.68;;;;;;;9.46;73.38;99542.94;3467481;28;20053;-60
2021/04/19 06:28:16;;;;;;;12.70;6.70;;;;;;;9.58;71.80;99544.81;3466794;28;20189;-49
2021/04/19 06:30:18;;;;;;;13.68;6.43;;;;;;;9.75;72.26;99540.78;3469894;28;20081;-49
2021/04/19 06:32:01;;;;;;;7.68;5.13;;;;;;;9.93;71.53;99537.59;3466401;28;20057;-49
2021/04/19 06:33:55;;;;;;;10.85;6.40;;;;;;;10.11;70.77;99532.66;3467838;28;20045;-60
2021/04/19 06:35:37;;;;;;;12.73;6.60;;;;;;;10.30;70.48;99528.59;3469113;28;20053;-60
2021/04/19 06:37:20;;;;;;;17.23;7.35;;;;;;;10.48;69.01;99527.06;3465084;28;20431;-60
2021/04/19 06:39:03;;;;;;;14.98;6.75;;;;;;;10.64;67.68;99528.09;3469544;28;20139;-60
2021/04/19 06:40:45;;;;;;;23.40;8.02;;;;;;;10.80;67.02;99526.56;3466630;28;20052;-49
2021/04/19 06:42:28;;;;;;;14.30;6.78;;;;;;;10.93;66.91;99528.41;3468404;28;20050;-48
2021/04/19 06:44:10;;;;;;;10.57;6.20;;;;;;;11.05;65.71;99519.88;3467665;28;20580;-49
2021/04/19 06:45:51;;;;;;;9.50;6.10;;;;;;;11.22;67.77;99520.88;3466208;28;20046;-49
2021/04/19 06:47:35;;;;;;;10.18;6.15;;;;;;;11.34;65.17;99524.47;3468363;28;20053;-50
2021/04/19 06:49:17;;;;;;;;;;;;;;;11.42;65.47;99521.06;3466555;28;20558;-50
2021/04/19 06:50:59;;;;;;;11.98;6.25;;;;;;;11.54;65.95;99524.63;3469384;28;19956;-50
2021/04/19 06:52:47;;;;;;;7.13;4.78;;;;;;;11.63;64.45;99519.50;3466235;28;20056;-49
2021/04/19 06:54:28;;;;;;;6.45;4.38;;;;;;;11.72;63.26;99513.50;3467799;28;20049;-52
2021/04/19 06:56:12;;;;;;;6.55;4.30;;;;;;;11.80;62.39;99517.03;3467751;28;20054;-50
2021/04/19 06:57:55;;;;;;;7.65;4.95;;;;;;;11.89;64.63;99514.47;3464732;28;20050;-50
2021/04/19 06:59:42;;;;;;;7.93;4.90;;;;;;;11.99;63.40;99515.38;3469331;28;20056;-49
2021/04/19 07:01:25;;;;;;;9.07;4.38;;;;;;;12.07;62.31;99511.09;3466169;28;20046;-49
2021/04/19 07:03:07;;;;;;;7.20;4.50;;;;;;;12.18;61.81;99518.94;3469090;28;20062;-51
2021/04/19 07:04:51;;;;;;;7.65;4.43;;;;;;;12.27;62.03;99518.97;3466321;28;20064;-48
2021/04/19 07:06:33;;;;;;;;;;;;;;;12.35;61.32;99519.91;3466319;28;20050;-50
2021/04/19 07:08:20;;;;;;;6.25;4.60;;;;;;;12.43;61.62;99519.91;3469026;28;20279;-49
2021/04/19 07:10:05;;;;;;;8.45;5.13;;;;;;;12.55;60.27;99519.09;3465789;28;20072;-50
2021/04/19 07:11:52;;;;;;;8.55;4.90;;;;;;;12.67;61.53;99513.94;3468006;28;20053;-50
2021/04/19 07:13:37;;;;;;;9.32;5.10;;;;;;;12.76;60.52;99510.47;3464778;28;20056;-48
2021/04/19 07:15:20;;;;;;;7.57;4.90;;;;;;;12.90;61.10;99520.94;3465851;28;20148;-52
2021/04/19 07:17:04;;;;;;;8.77;5.43;;;;;;;12.97;61.06;99517.50;3467881;28;20049;-53
2021/04/19 07:18:46;;;;;;;9.00;4.97;;;;;;;13.08;59.57;99504.50;3465865;28;20533;-51
2021/04/19 07:20:30;;;;;;;9.32;5.32;;;;;;;13.20;60.87;99509.72;3469240;28;20132;-49
2021/04/19 07:22:14;;;;;;;8.68;5.70;;;;;;;13.30;59.08;99506.25;3465801;28;20049;-50
2021/04/19 07:23:56;;;;;;;8.88;5.22;;;;;;;13.38;58.15;99506.22;3466973;28;20430;-51
2021/04/19 07:25:37;;;;;;;8.35;5.97;;;;;;;13.38;57.12;99507.97;3467009;28;20259;-51
2021/04/19 07:27:19;;;;;;;7.32;5.30;;;;;;;13.37;57.69;99501.91;3464468;28;20076;-51
2021/04/19 07:29:02;;;;;;;7.95;5.50;;;;;;;13.36;57.92;99491.47;3469036;28;20502;-52
2021/04/19 07:30:44;;;;;;;8.50;5.38;;;;;;;13.42;59.40;99500.13;3465627;28;20436;-49
2021/04/19 07:32:33;;;;;;;8.10;5.68;;;;;;;13.53;57.53;99497.53;3469208;28;20081;-51
2021/04/19 07:34:16;;;;;;;11.32;5.40;;;;;;;13.63;57.87;99496.63;3465843;28;20092;-57
2021/04/19 07:36:17;;;;;;;7.45;4.97;;;;;;;13.70;55.40;99487.94;3466913;28;20058;-57
2021/04/19 07:38:01;;;;;;;6.28;5.03;;;;;;;13.86;57.12;99485.28;3469163;28;20076;-57
2021/04/19 07:39:42;;;;;;;7.60;4.90;;;;;;;14.00;60.11;99491.34;3465712;28;20517;-57
2021/04/19 07:41:44;;;;;;;7.63;4.88;;;;;;;14.18;57.31;99492.16;3469150;28;20057;-57
2021/04/19 07:43:25;;;;;;;6.90;5.35;;;;;;;14.28;55.57;99484.28;3466390;28;20050;-57
2021/04/19 07:45:07;;;;;;;8.30;5.43;;;;;;;14.33;55.96;99483.44;3466652;28;20522;-51
2021/04/19 07:46:48;;;;;;;8.73;5.82;;;;;;;14.36;55.55;99480.78;3468172;28;20053;-51
2021/04/19 07:48:35;;;;;;;6.80;5.13;;;;;;;14.44;57.96;99481.63;3465639;28;20041;-52
2021/04/19 07:50:19;;;;;;;8.07;5.18;;;;;;;14.45;51.96;99483.38;3468963;28;20068;-53
2021/04/19 07:52:08;;;;;;;;;;;;;;;14.36;53.09;99480.78;3465905;28;20065;-53
2021/04/19 07:53:50;;;;;;;7.60;4.95;;;;;;;14.32;52.03;99479.94;3466883;28;20405;-51
2021/04/19 07:55:34;;;;;;;6.57;4.60;;;;;;;14.35;52.87;99489.50;3467159;28;20057;-51
2021/04/19 07:57:22;;;;;;;8.55;4.22;;;;;;;14.39;53.10;99491.22;3464917;28;20053;-51
2021/04/19 07:59:22;;;;;;;6.85;5.20;;;;;;;14.40;53.06;99477.31;3468705;28;20533;-52
2021/04/19 08:01:04;;;;;;;6.78;4.80;;;;;;;14.22;53.07;99489.53;3464644;28;20051;-52
2021/04/19 08:02:45;;;;;;;7.70;4.82;;;;;;;14.05;53.12;99481.75;3466446;28;20506;-50
2021/04/19 08:04:28;;;;;;;8.35;4.82;;;;;;;13.85;54.13;99483.59;3467665;28;20053;-54